Flight Track Log - Related Links

Times and Time Zones

All times are in EDT time to prevent confusion due to time zone crossing. See the SWA3561 flight status page for this flight to view local times or setup timezone preferences in your user account.

Time Position Orientation Groundspeed Altitude Reporting Facility
EDT Latitude Longitude Course Direction KTS MPH feet Rate Location/Type
Sun 09:28:06 AM 32.8167 -96.8167 191° South 182 209 2,200  Level Dallas / Fort Worth TRACON
Sun 09:30:06 AM 32.7003 -96.8086 177° South 226 260 9,100 2,933 Climbing Fort Worth Center
Sun 09:31:06 AM 32.6192 -96.8583 207° Southwest 301 346 11,000 2,600 Climbing Fort Worth Center
Sun 09:32:06 AM 32.5358 -96.9083 207° Southwest 364 419 14,300 3,400 Climbing Fort Worth Center
Sun 09:33:00 AM 32.3713 -97.0918 191° South  Level Estimated
Sun 09:33:06 AM 32.4256 -96.9681 205° Southwest 391 450 17,800  Level Fort Worth Center
Sun 09:34:06 AM 32.3253 -96.9931 192° South 403 464 20,600 5,600 Climbing Fort Worth Center
Sun 09:35:06 AM 32.2064 -97.0256 193° South 409 471 29,000 2,650 Climbing Fort Worth Center
Sun 09:36:06 AM 32.0897 -97.0603 194° South 415 478 25,900 150 Descending Fort Worth Center
Sun 09:37:06 AM 31.9811 -97.0900 193° South 416 479 29,300 2,050 Climbing Fort Worth Center
Sun 09:38:06 AM 31.8747 -97.1222 194° South 400 460 30,000 350 Climbing Fort Worth Center
Sun 09:39:06 AM 31.7600 -97.1519 192° South 406 467 30,000  Level Fort Worth Center
Sun 09:40:50 AM 31.5647 -97.2061 193° South 428 493 30,000  Level Houston Center
Sun 09:41:51 AM 31.4494 -97.2386 194° South 425 489 30,000  Level Houston Center
Sun 09:42:52 AM 31.3361 -97.2700 193° South 417 480 30,000  Level Houston Center
Sun 09:43:53 AM 31.2211 -97.3014 193° South 419 482 30,000  Level Houston Center
Sun 09:44:55 AM 31.1056 -97.3342 194° South 422 486 30,000  Level Houston Center
Sun 09:45:56 AM 30.9911 -97.3650 193° South 425 489 30,000 -393 Level Houston Center
Sun 09:46:57 AM 30.8589 -97.4008 193° South 425 489 29,200 -934 Descending Houston Center
Sun 09:47:58 AM 30.7422 -97.4308 192° South 427 491 28,100 -1,033 Descending Houston Center
Sun 09:48:59 AM 30.6228 -97.4633 193° South 435 501 27,100 -1,024 Descending Houston Center
Sun 09:50:01 AM 30.5078 -97.4942 193° South 425 489 26,000 -1,073 Descending Houston Center
Sun 09:51:02 AM 30.3964 -97.5261 194° South 411 473 24,900 -1,131 Descending Houston Center
Sun 09:52:03 AM 30.3008 -97.5828 207° Southwest 384 442 23,700 -1,377 Descending Houston Center
Sun 09:53:04 AM 30.2069 -97.6497 212° Southwest 390 449 22,100 -1,926 Descending Houston Center
Sun 09:53:24 AM 30.1744 -97.6719 211° Southwest 386 444 21,100 -2,516 Descending Houston Center
Sun 09:54:06 AM 30.1156 -97.7108 210° Southwest 377 434 19,500 -2,505 Descending Houston Center
Sun 09:55:07 AM 30.0239 -97.7753 211° Southwest 364 419 16,800 -2,754 Descending Houston Center
Sun 09:56:08 AM 29.9303 -97.8408 211° Southwest 362 417 13,900 -2,508 Descending Houston Center
Sun 09:57:09 AM 29.8706 -97.9239 230° Southwest 344 396 11,700 -2,083 Descending Houston Center
Sun 09:58:09 AM 29.8300 -98.0222 245° Southwest 337 388 9,700 -1,636 Descending Houston Center
Sun 09:59:10 AM 29.7942 -98.1086 244° Southwest 296 341 8,400 -1,355 Descending Houston Center
Sun 10:00:13 AM 29.7553 -98.1983 243° Southwest 289 333 6,900 -1,339 Descending Houston Center
Sun 10:01:11 AM 29.7253 -98.2711 245° Southwest 275 316 5,700 -1,500 Descending Houston Center
Sun 10:02:05 AM 29.6986 -98.3442 247° West 264 304 4,100 -1,409 Descending Houston Center
Sun 10:03:06 AM 29.6678 -98.4200 245° Southwest 261 300 3,000 -590 Descending Houston Center
Sun 10:04:07 AM 29.6381 -98.4861 243° Southwest 205 236 2,900 -248 Descending Houston Center
Sun 10:05:07 AM 29.6081 -98.5258 229° Southwest 145 167 2,500 -520 Descending Houston Center
Sun 10:06:14 AM 29.5725 -98.5253 179° South 119 137 1,800 -709 Descending Houston Center
Sun 10:07:14 AM 29.5464 -98.4922 132° Southeast 133 153 1,000 -800 Descending Houston Center
Sun 10:09:00 AM 29.5340 -98.4691 12° North  Level Estimated
Sun 10:16:00 AM 29.5333 -98.4667 16° North  Level FlightAware Approximate

Login

Don't have an account? Register now (free) for customized features, flight alerts, and more!